Time;durP1;ratioP1;P1;durP2;ratioP2;P2;SDS_P1;SDS_P2;PMS_P1;PMS_P2;Temp;Humidity;BMP_temperature;BMP_pressure;BME280_temperature;BME280_humidity;BME280_pressure;Samples;Min_cycle;Max_cycle;Signal;HPM_P1;HPM_P2
2023/07/12 00:01:30;;;;;;;3.22;1.42;;;;;19.30;96127.00;;;;8217936;28;20345;-68
2023/07/12 00:05:33;;;;;;;3.88;2.38;;;;;19.30;96156.00;;;;8218532;28;20234;-68
2023/07/12 00:09:38;;;;;;;2.50;1.67;;;;;19.20;96187.00;;;;8216844;28;20298;-67
2023/07/12 00:13:41;;;;;;;3.95;1.50;;;;;19.10;96190.00;;;;8210245;28;20206;-67
2023/07/12 00:17:50;;;;;;;3.42;1.70;;;;;19.10;96211.00;;;;8223561;28;20226;-66
2023/07/12 00:21:53;;;;;;;1.70;1.60;;;;;19.00;96227.00;;;;8220814;28;20269;-65
2023/07/12 00:25:56;;;;;;;1.60;1.50;;;;;18.90;96241.00;;;;8219858;28;20218;-67
2023/07/12 00:30:01;;;;;;;4.95;1.80;;;;;19.00;96246.00;;;;8215448;28;20210;-67
2023/07/12 00:34:06;;;;;;;3.63;1.70;;;;;19.00;96246.00;;;;8219885;28;20211;-67
2023/07/12 00:38:16;;;;;;;5.53;2.08;;;;;18.90;96256.00;;;;8224358;28;20878;-67
2023/07/12 00:42:24;;;;;;;4.78;2.22;;;;;18.90;96252.00;;;;8225830;28;20223;-64
2023/07/12 00:46:32;;;;;;;5.13;2.10;;;;;18.90;96268.00;;;;8223254;28;20653;-67
2023/07/12 00:50:39;;;;;;;6.53;2.20;;;;;18.90;96262.00;;;;8207944;28;20211;-66
2023/07/12 00:54:51;;;;;;;2.90;2.42;;;;;18.90;96258.00;;;;8222140;28;20732;-65
2023/07/12 00:59:04;;;;;;;2.92;2.03;;;;;18.90;96228.00;;;;8225012;28;20573;-67
2023/07/12 01:03:12;;;;;;;3.60;2.15;;;;;19.00;96227.00;;;;8224937;28;20278;-66
2023/07/12 01:07:20;;;;;;;3.35;2.03;;;;;18.90;96208.00;;;;8223601;28;20203;-67
2023/07/12 01:11:24;;;;;;;3.25;2.67;;;;;19.00;96201.00;;;;8221820;28;20262;-68
2023/07/12 01:15:32;;;;;;;2.95;2.40;;;;;19.00;96186.00;;;;8223097;28;20208;-67
2023/07/12 01:19:39;;;;;;;3.83;2.33;;;;;19.00;96182.00;;;;8206487;28;20290;-69
2023/07/12 01:23:46;;;;;;;7.70;2.70;;;;;19.00;96164.00;;;;8225575;28;20314;-70
2023/07/12 01:27:49;;;;;;;4.78;2.80;;;;;19.10;96160.00;;;;8220022;28;20211;-69
2023/07/12 01:31:53;;;;;;;3.25;2.50;;;;;19.10;96147.00;;;;8224527;28;20832;-65
2023/07/12 01:35:59;;;;;;;3.50;2.97;;;;;19.10;96112.00;;;;8221248;28;20200;-65
2023/07/12 01:40:05;;;;;;;2.90;2.70;;;;;19.20;96076.00;;;;8224183;28;20203;-68
2023/07/12 01:44:13;;;;;;;4.82;2.58;;;;;19.20;96076.00;;;;8221504;28;20277;-67
2023/07/12 01:48:16;;;;;;;6.47;3.15;;;;;19.10;96075.00;;;;8219116;28;20218;-65
2023/07/12 01:52:20;;;;;;;4.50;3.00;;;;;19.10;96077.00;;;;8221861;28;20231;-64
2023/07/12 01:56:27;;;;;;;3.53;3.00;;;;;19.10;96083.00;;;;8230031;28;20222;-64
2023/07/12 02:00:30;;;;;;;4.43;2.80;;;;;19.10;96116.00;;;;8226079;28;20237;-66
2023/07/12 02:04:35;;;;;;;3.17;2.88;;;;;19.00;96149.00;;;;8220530;28;20903;-63
2023/07/12 02:08:38;;;;;;;4.40;2.65;;;;;19.00;96126.00;;;;8200922;28;20303;-65
2023/07/12 02:12:43;;;;;;;3.05;2.75;;;;;19.00;96093.00;;;;8216394;28;20692;-68
2023/07/12 02:16:46;;;;;;;4.32;2.88;;;;;19.00;96104.00;;;;8212757;28;20199;-66
2023/07/12 02:20:49;;;;;;;6.03;3.28;;;;;19.00;96098.00;;;;8213701;28;20294;-66
2023/07/12 02:24:55;;;;;;;5.35;3.15;;;;;19.00;96094.00;;;;8212955;28;20240;-68
2023/07/12 02:29:03;;;;;;;5.40;2.78;;;;;19.00;96078.00;;;;8187123;28;20299;-68
2023/07/12 02:33:08;;;;;;;7.95;3.28;;;;;19.00;96078.00;;;;8210674;28;20300;-67
2023/07/12 02:37:11;;;;;;;5.90;3.35;;;;;19.10;96098.00;;;;8204483;28;20291;-68
2023/07/12 02:41:19;;;;;;;10.45;4.65;;;;;19.10;96098.00;;;;8213097;28;20246;-68
2023/07/12 02:45:28;;;;;;;8.70;4.88;;;;;19.10;96083.00;;;;8215294;28;20241;-67
2023/07/12 02:49:36;;;;;;;9.40;5.68;;;;;19.10;96066.00;;;;8215919;28;20199;-65
2023/07/12 02:53:40;;;;;;;10.63;6.05;;;;;19.10;96064.00;;;;8207717;28;20231;-68
2023/07/12 02:57:47;;;;;;;10.75;6.38;;;;;19.20;96039.00;;;;8208012;28;20254;-68
2023/07/12 03:01:53;;;;;;;8.60;6.30;;;;;19.20;96024.00;;;;8275660;22;20266;-69
2023/07/12 03:06:05;;;;;;;12.95;7.35;;;;;19.20;95996.00;;;;8261168;28;20242;-69
2023/07/12 03:10:09;;;;;;;10.85;5.72;;;;;19.20;95988.00;;;;8263082;28;20199;-70
2023/07/12 03:14:13;;;;;;;11.85;7.57;;;;;19.20;95985.00;;;;8268447;28;20272;-69
2023/07/12 03:18:17;;;;;;;12.10;7.10;;;;;19.20;95995.00;;;;8258270;28;20682;-70
2023/07/12 03:22:20;;;;;;;16.15;8.18;;;;;19.20;95985.00;;;;8251336;28;22004;-72
2023/07/12 03:26:24;;;;;;;13.15;7.90;;;;;19.20;95977.00;;;;8269751;28;20253;-71
2023/07/12 03:30:27;;;;;;;12.15;7.13;;;;;19.20;95970.00;;;;8260595;28;20302;-70
2023/07/12 03:34:32;;;;;;;10.35;7.03;;;;;19.30;95963.00;;;;8267775;28;20281;-70
2023/07/12 03:38:35;;;;;;;12.45;6.53;;;;;19.30;95984.00;;;;8264498;28;20199;-72
2023/07/12 03:42:39;;;;;;;11.68;6.93;;;;;19.30;95994.00;;;;8256532;28;20218;-71
2023/07/12 03:46:42;;;;;;;16.05;6.70;;;;;19.20;95991.00;;;;8261351;28;20275;-70
2023/07/12 03:50:48;;;;;;;12.15;6.38;;;;;19.30;95993.00;;;;8267075;28;20572;-70
2023/07/12 03:54:54;;;;;;;9.90;6.20;;;;;19.30;95982.00;;;;8273538;28;20198;-70
2023/07/12 03:58:57;;;;;;;10.00;5.68;;;;;19.30;95980.00;;;;8274600;28;20226;-70
2023/07/12 04:03:01;;;;;;;11.60;5.45;;;;;19.30;95992.00;;;;8267944;28;20756;-70
2023/07/12 04:07:05;;;;;;;6.78;5.15;;;;;19.40;95991.00;;;;8270517;28;20240;-70
2023/07/12 04:11:17;;;;;;;5.95;4.85;;;;;19.40;95989.00;;;;8269727;28;20218;-69
2023/07/12 04:15:23;;;;;;;6.47;4.88;;;;;19.50;95982.00;;;;8266703;28;20294;-70
2023/07/12 04:19:26;;;;;;;6.25;4.93;;;;;19.60;95981.00;;;;8265575;28;20202;-70
2023/07/12 04:23:31;;;;;;;7.20;5.00;;;;;19.80;95965.00;;;;8274726;28;20297;-69
2023/07/12 04:27:37;;;;;;;10.55;4.70;;;;;20.00;95965.00;;;;8272723;28;20229;-70
2023/07/12 04:31:41;;;;;;;9.07;4.22;;;;;20.20;95978.00;;;;8278430;28;20202;-70
2023/07/12 04:35:44;;;;;;;5.45;4.25;;;;;20.40;95976.00;;;;8278182;28;20265;-70
2023/07/12 04:39:48;;;;;;;7.35;4.30;;;;;20.50;95970.00;;;;8265998;28;20210;-70
2023/07/12 04:43:54;;;;;;;4.20;3.80;;;;;20.70;95974.00;;;;8281210;28;20304;-70
2023/07/12 04:47:57;;;;;;;6.28;3.40;;;;;20.60;95976.00;;;;8274785;28;20198;-70
2023/07/12 04:52:00;;;;;;;5.18;3.47;;;;;20.50;95970.00;;;;8285013;28;20794;-70
2023/07/12 04:56:08;;;;;;;5.47;3.35;;;;;20.40;95980.00;;;;8276993;28;20281;-69
2023/07/12 05:00:13;;;;;;;8.77;3.70;;;;;20.30;95977.00;;;;8266850;28;20295;-70
2023/07/12 05:04:17;;;;;;;12.90;4.22;;;;;20.30;95986.00;;;;8269357;28;20273;-70
2023/07/12 05:08:22;;;;;;;5.75;3.72;;;;;20.40;95976.00;;;;8268121;28;20213;-69
2023/07/12 05:12:31;;;;;;;4.22;3.40;;;;;20.60;95965.00;;;;8282185;28;20210;-69
2023/07/12 05:16:34;;;;;;;5.38;3.60;;;;;20.90;95949.00;;;;8270072;28;20213;-68
2023/07/12 05:20:39;;;;;;;5.50;3.60;;;;;21.20;95949.00;;;;8280388;28;20699;-68
2023/07/12 05:24:42;;;;;;;5.82;3.28;;;;;21.40;95955.00;;;;8276244;28;20671;-68
2023/07/12 05:28:49;;;;;;;8.65;3.88;;;;;21.50;95973.00;;;;8274025;28;20656;-67
2023/07/12 05:32:55;;;;;;;5.05;4.00;;;;;21.70;95973.00;;;;8278185;28;20217;-68
2023/07/12 05:36:58;;;;;;;13.70;4.47;;;;;22.10;95986.00;;;;8268799;28;20229;-67
2023/07/12 05:41:05;;;;;;;9.65;4.00;;;;;22.50;95985.00;;;;8266653;28;20357;-67
2023/07/12 05:45:13;;;;;;;6.10;3.80;;;;;22.80;95996.00;;;;8273747;28;20233;-67
2023/07/12 05:49:18;;;;;;;5.97;3.50;;;;;23.00;95998.00;;;;8266780;28;20211;-67
2023/07/12 05:53:22;;;;;;;7.85;3.78;;;;;23.10;96003.00;;;;8277738;28;20230;-68
2023/07/12 05:57:27;;;;;;;5.88;3.30;;;;;23.40;95989.00;;;;8298245;28;20233;-69
2023/07/12 06:01:36;;;;;;;4.35;3.15;;;;;23.50;95990.00;;;;8267282;28;20325;-68
2023/07/12 06:05:44;;;;;;;5.90;2.88;;;;;23.60;96005.00;;;;8273949;28;20245;-68
2023/07/12 06:09:47;;;;;;;7.50;3.03;;;;;24.00;96011.00;;;;8275158;28;20203;-69
2023/07/12 06:13:53;;;;;;;6.45;3.08;;;;;24.20;96006.00;;;;8268589;28;20902;-68
2023/07/12 06:17:58;;;;;;;7.50;3.35;;;;;24.40;96004.00;;;;8282520;28;20705;-68
2023/07/12 06:22:04;;;;;;;6.00;3.35;;;;;24.40;96016.00;;;;8304065;28;20231;-68
2023/07/12 06:26:07;;;;;;;6.15;3.10;;;;;24.10;96010.00;;;;8294955;28;20284;-68
2023/07/12 06:30:12;;;;;;;6.53;3.22;;;;;23.80;96009.00;;;;8285733;28;20229;-68
2023/07/12 06:34:16;;;;;;;8.57;3.30;;;;;23.80;96007.00;;;;8284893;28;20312;-68
2023/07/12 06:38:21;;;;;;;4.88;2.80;;;;;24.10;96011.00;;;;8261405;28;20293;-67
2023/07/12 06:42:26;;;;;;;7.47;3.58;;;;;24.40;96009.00;;;;8285381;28;20233;-68
2023/07/12 06:46:34;;;;;;;7.38;3.30;;;;;24.70;96002.00;;;;8276979;28;20805;-67
2023/07/12 06:50:40;;;;;;;7.95;3.40;;;;;25.20;96010.00;;;;8277595;28;20228;-70
2023/07/12 06:54:46;;;;;;;5.45;2.65;;;;;25.30;96013.00;;;;8281821;28;20321;-74
2023/07/12 06:58:50;;;;;;;3.28;2.97;;;;;25.30;96012.00;;;;8273217;28;20214;-72
2023/07/12 07:02:53;;;;;;;5.60;2.85;;;;;26.00;96016.00;;;;8272408;28;20857;-72
2023/07/12 07:06:58;;;;;;;7.38;2.85;;;;;26.90;96014.00;;;;8276046;28;20241;-73
2023/07/12 07:11:02;;;;;;;5.40;2.80;;;;;27.50;96040.00;;;;8274520;28;20604;-70
2023/07/12 07:15:09;;;;;;;4.15;2.38;;;;;28.10;96052.00;;;;8272774;28;20296;-71
2023/07/12 07:19:12;;;;;;;6.32;3.58;;;;;28.60;96062.00;;;;8279535;28;20860;-71
2023/07/12 07:23:18;;;;;;;6.30;2.55;;;;;28.30;96060.00;;;;8285207;28;20214;-70
2023/07/12 07:27:22;;;;;;;3.53;2.70;;;;;27.80;96076.00;;;;8278218;28;20718;-69
2023/07/12 07:31:26;;;;;;;4.28;2.42;;;;;27.20;96079.00;;;;8272180;28;20221;-71
2023/07/12 07:35:34;;;;;;;7.97;3.42;;;;;26.60;96080.00;;;;8263474;28;20197;-68
2023/07/12 07:39:39;;;;;;;6.80;2.88;;;;;25.90;96097.00;;;;8267320;28;20203;-68
2023/07/12 07:43:45;;;;;;;8.15;3.00;;;;;25.60;96104.00;;;;8289715;28;20217;-68
2023/07/12 07:47:48;;;;;;;5.32;3.55;;;;;25.90;96089.00;;;;8287823;28;20850;-70
2023/07/12 07:51:51;;;;;;;9.32;3.90;;;;;26.30;96095.00;;;;8274771;28;20214;-72
2023/07/12 07:55:56;;;;;;;8.68;3.55;;;;;26.60;96099.00;;;;8273824;28;20230;-71
2023/07/12 08:00:10;;;;;;;4.32;3.40;;;;;26.80;96094.00;;;;8281500;28;20750;-68
2023/07/12 08:04:13;;;;;;;9.80;3.53;;;;;26.90;96097.00;;;;8271105;28;20274;-69
2023/07/12 08:08:19;;;;;;;8.40;3.80;;;;;26.50;96103.00;;;;8275667;28;20253;-68
2023/07/12 08:12:24;;;;;;;7.25;3.60;;;;;26.50;96107.00;;;;8278194;28;20206;-70
2023/07/12 08:16:29;;;;;;;6.72;3.55;;;;;26.70;96112.00;;;;8282107;28;20690;-71
2023/07/12 08:20:33;;;;;;;6.40;3.50;;;;;26.90;96117.00;;;;8271136;28;20288;-70
2023/07/12 08:24:42;;;;;;;10.40;4.13;;;;;27.10;96114.00;;;;8269905;28;20842;-68
2023/07/12 08:28:47;;;;;;;7.30;4.00;;;;;27.40;96114.00;;;;8273473;28;20749;-69
2023/07/12 08:32:51;;;;;;;8.38;3.55;;;;;28.20;96106.00;;;;8271030;28;20212;-71
2023/07/12 08:36:54;;;;;;;5.47;3.90;;;;;28.40;96111.00;;;;8268570;28;20930;-69
2023/07/12 08:40:59;;;;;;;9.13;3.60;;;;;28.50;96117.00;;;;8275670;28;20198;-68
2023/07/12 08:45:20;;;;;;;5.40;3.42;;;;;28.40;96116.00;;;;8284342;28;20227;-69
2023/07/12 08:49:25;;;;;;;8.32;4.45;;;;;28.40;96122.00;;;;8280986;28;20305;-68
2023/07/12 08:53:31;;;;;;;6.90;4.13;;;;;28.50;96118.00;;;;8279890;28;20679;-69
2023/07/12 08:57:37;;;;;;;9.88;4.00;;;;;28.80;96120.00;;;;8269300;28;21044;-69
2023/07/12 09:01:48;;;;;;;4.43;3.83;;;;;28.90;96127.00;;;;8277104;28;20580;-69
2023/07/12 09:05:51;;;;;;;7.75;4.50;;;;;29.20;96122.00;;;;8281307;28;20234;-68
2023/07/12 09:09:56;;;;;;;9.73;4.32;;;;;29.40;96110.00;;;;8283363;28;20204;-69
2023/07/12 09:13:59;;;;;;;6.75;4.28;;;;;29.60;96111.00;;;;8278253;28;20242;-69
2023/07/12 09:18:06;;;;;;;7.90;4.10;;;;;29.70;96111.00;;;;8264355;28;20213;-69
2023/07/12 09:22:15;;;;;;;11.35;4.63;;;;;29.80;96114.00;;;;8271866;28;20265;-69
2023/07/12 09:26:23;;;;;;;6.45;4.28;;;;;30.30;96107.00;;;;8280407;28;20325;-68
2023/07/12 09:30:30;;;;;;;10.18;4.68;;;;;31.20;96098.00;;;;8284161;28;20286;-69
2023/07/12 09:34:47;;;;;;;9.35;4.20;;;;;31.80;96098.00;;;;8277669;28;20838;-67
2023/07/12 09:38:52;;;;;;;9.60;4.40;;;;;31.80;96096.00;;;;8282343;28;20230;-67
2023/07/12 09:42:58;;;;;;;9.70;4.75;;;;;31.90;96095.00;;;;8284616;28;20672;-70
2023/07/12 09:47:08;;;;;;;6.93;4.20;;;;;32.00;96089.00;;;;8270439;28;20227;-69
2023/07/12 09:51:30;;;;;;;7.38;4.57;;;;;31.80;96090.00;;;;8281531;28;20207;-66
2023/07/12 09:55:40;;;;;;;7.80;4.10;;;;;31.80;96100.00;;;;8268628;28;20212;-67
2023/07/12 10:00:03;;;;;;;7.25;4.30;;;;;31.70;96084.00;;;;8276376;28;20689;-68
2023/07/12 10:04:28;;;;;;;8.27;4.30;;;;;32.10;96083.00;;;;8268242;28;20329;-67
2023/07/12 10:08:49;;;;;;;8.45;4.60;;;;;32.00;96077.00;;;;8256838;28;20233;-69
2023/07/12 10:13:01;;;;;;;4.80;4.35;;;;;31.60;96083.00;;;;8272791;28;20772;-69
2023/07/12 10:17:05;;;;;;;8.48;4.10;;;;;31.90;96094.00;;;;8283421;28;20261;-68
2023/07/12 10:21:14;;;;;;;6.20;4.03;;;;;31.80;96098.00;;;;8282095;28;20202;-65
2023/07/12 10:25:23;;;;;;;5.38;4.07;;;;;31.70;96092.00;;;;8277908;28;20294;-65
2023/07/12 10:29:40;;;;;;;6.97;4.25;;;;;32.20;96097.00;;;;8282544;28;20221;-67
2023/07/12 10:33:50;;;;;;;7.03;4.10;;;;;32.70;96099.00;;;;8279688;28;20206;-65
2023/07/12 10:37:58;;;;;;;8.75;4.07;;;;;33.20;96097.00;;;;8281575;28;20206;-69
2023/07/12 10:42:10;;;;;;;8.63;4.18;;;;;33.80;96102.00;;;;8280969;28;20210;-67
2023/07/12 10:46:30;;;;;;;7.13;3.33;;;;;34.20;96084.00;;;;8273991;28;20242;-68
2023/07/12 10:50:38;;;;;;;7.32;3.58;;;;;34.80;96092.00;;;;8281685;28;20646;-70
2023/07/12 10:54:51;;;;;;;8.07;4.18;;;;;35.00;96095.00;;;;8281416;28;21851;-68
2023/07/12 10:59:02;;;;;;;6.88;4.43;;;;;34.60;96090.00;;;;8274630;28;20238;-70
2023/07/12 11:03:32;;;;;;;5.13;4.20;;;;;35.00;96080.00;;;;8277923;28;20778;-70
2023/07/12 11:07:37;;;;;;;7.78;4.13;;;;;35.50;96081.00;;;;8272459;28;20241;-70
2023/07/12 11:11:45;;;;;;;11.23;4.15;;;;;35.30;96086.00;;;;8280619;28;20694;-69
2023/07/12 11:16:03;;;;;;;5.22;3.50;;;;;35.40;96096.00;;;;8284316;28;20210;-73
2023/07/12 11:20:09;;;;;;;7.05;3.75;;;;;35.10;96098.00;;;;8273591;28;20206;-70
2023/07/12 11:24:30;;;;;;;7.68;4.03;;;;;34.70;96094.00;;;;8277977;28;20214;-71
2023/07/12 11:28:45;;;;;;;8.07;4.35;;;;;33.50;96108.00;;;;8253279;28;20908;-71
2023/07/12 11:32:53;;;;;;;9.63;4.03;;;;;32.60;96101.00;;;;8272036;28;21100;-74
2023/07/12 11:37:16;;;;;;;8.73;4.18;;;;;32.70;96105.00;;;;8269664;28;20214;-71
2023/07/12 11:41:24;;;;;;;5.85;4.13;;;;;34.10;96102.00;;;;8282585;28;20210;-69
2023/07/12 11:45:30;;;;;;;7.53;3.92;;;;;34.90;96093.00;;;;8262986;28;20801;-70
2023/07/12 11:49:35;;;;;;;5.65;3.65;;;;;35.10;96084.00;;;;8275187;28;20305;-69
2023/07/12 11:53:50;;;;;;;5.72;3.42;;;;;35.40;96090.00;;;;8270419;28;20202;-69
2023/07/12 11:57:58;;;;;;;7.40;4.15;;;;;35.90;96093.00;;;;8278161;28;20517;-75
2023/07/12 12:02:05;;;;;;;5.68;4.13;;;;;35.10;96097.00;;;;8277700;28;20206;-69
2023/07/12 12:06:14;;;;;;;8.48;3.80;;;;;34.40;96097.00;;;;8264672;28;20237;-71
2023/07/12 12:10:22;;;;;;;6.45;3.40;;;;;34.30;96097.00;;;;8264535;28;20211;-72
2023/07/12 12:14:29;;;;;;;12.93;3.95;;;;;35.30;96090.00;;;;8273624;28;20306;-72
2023/07/12 12:18:38;;;;;;;8.15;4.43;;;;;35.60;96093.00;;;;8268741;28;20215;-68
2023/07/12 12:22:49;;;;;;;6.70;3.67;;;;;35.80;96087.00;;;;8278629;28;20198;-68
2023/07/12 12:26:53;;;;;;;7.72;3.65;;;;;35.90;96076.00;;;;8259941;28;20233;-70
2023/07/12 12:31:00;;;;;;;5.68;3.80;;;;;36.10;96071.00;;;;8282898;28;20241;-70
2023/07/12 12:35:06;;;;;;;5.15;3.45;;;;;36.60;96071.00;;;;8280848;28;20300;-68
2023/07/12 12:39:21;;;;;;;4.70;3.50;;;;;37.00;96079.00;;;;8279594;28;20308;-67
2023/07/12 12:43:25;;;;;;;3.88;3.58;;;;;36.30;96090.00;;;;8287285;28;20245;-68
2023/07/12 12:47:31;;;;;;;4.07;3.67;;;;;35.20;96071.00;;;;8290622;28;20599;-70
2023/07/12 12:51:34;;;;;;;4.10;3.22;;;;;34.50;96083.00;;;;8282294;28;20206;-69
2023/07/12 12:55:44;;;;;;;3.90;3.60;;;;;34.10;96074.00;;;;8273687;28;20606;-72
2023/07/12 12:59:53;;;;;;;8.63;4.18;;;;;33.90;96079.00;;;;8270823;28;20592;-75
2023/07/12 13:03:59;;;;;;;5.35;3.55;;;;;33.80;96087.00;;;;8288088;28;20255;-72
2023/07/12 13:08:16;;;;;;;4.20;3.80;;;;;33.60;96067.00;;;;8278397;28;20233;-73
2023/07/12 13:12:25;;;;;;;4.75;3.60;;;;;33.60;96069.00;;;;8288285;28;20221;-73
2023/07/12 13:16:34;;;;;;;4.20;3.53;;;;;33.60;96073.00;;;;8265979;28;20198;-73
2023/07/12 13:20:40;;;;;;;4.55;3.90;;;;;33.10;96072.00;;;;8284277;28;20202;-73
2023/07/12 13:24:45;;;;;;;4.60;3.40;;;;;33.00;96079.00;;;;8279167;28;20252;-72
2023/07/12 13:28:50;;;;;;;6.15;3.38;;;;;32.90;96065.00;;;;8273987;28;20234;-72
2023/07/12 13:32:55;;;;;;;4.28;3.53;;;;;33.50;96059.00;;;;8274776;28;20209;-75
2023/07/12 13:36:59;;;;;;;7.80;3.97;;;;;33.80;96054.00;;;;8282867;28;20210;-73
2023/07/12 13:41:03;;;;;;;6.35;3.30;;;;;33.70;96042.00;;;;8274820;28;20202;-73
2023/07/12 13:45:11;;;;;;;6.22;3.90;;;;;33.40;96054.00;;;;8275652;28;20678;-73
2023/07/12 13:49:20;;;;;;;5.57;3.78;;;;;33.10;96052.00;;;;8268953;28;20234;-73
2023/07/12 13:53:27;;;;;;;4.05;3.65;;;;;32.70;96068.00;;;;8284882;28;20293;-72
2023/07/12 13:57:33;;;;;;;8.43;4.13;;;;;32.40;96054.00;;;;8288721;28;20874;-72
2023/07/12 14:01:49;;;;;;;4.75;3.50;;;;;32.10;96061.00;;;;8282511;28;20927;-73
2023/07/12 14:06:14;;;;;;;5.18;3.88;;;;;32.00;96066.00;;;;8268229;28;20746;-74
2023/07/12 14:10:40;;;;;;;4.60;3.67;;;;;31.80;96065.00;;;;8265180;28;20279;-72
2023/07/12 14:14:46;;;;;;;3.72;3.40;;;;;31.90;96062.00;;;;8277437;28;20203;-72
2023/07/12 14:18:51;;;;;;;8.43;3.40;;;;;32.10;96080.00;;;;8282877;28;20238;-73
2023/07/12 14:22:57;;;;;;;25.73;4.95;;;;;32.30;96089.00;;;;8276980;28;20289;-73
2023/07/12 14:27:00;;;;;;;10.43;3.60;;;;;32.50;96092.00;;;;8278577;28;20910;-72
2023/07/12 14:31:12;;;;;;;12.75;3.60;;;;;32.40;96098.00;;;;8274317;28;20202;-72
2023/07/12 14:35:18;;;;;;;4.93;3.80;;;;;32.10;96109.00;;;;8276094;28;20206;-73
2023/07/12 14:39:25;;;;;;;10.43;3.67;;;;;31.70;96115.00;;;;8274176;28;20208;-72
2023/07/12 14:43:29;;;;;;;4.57;4.00;;;;;31.20;96095.00;;;;8285095;28;20213;-72
2023/07/12 14:47:33;;;;;;;5.43;4.18;;;;;30.90;96085.00;;;;8286667;28;20230;-72
2023/07/12 14:51:41;;;;;;;5.50;3.75;;;;;30.70;96080.00;;;;8266833;28;20207;-73
2023/07/12 14:55:57;;;;;;;6.32;3.85;;;;;30.40;96072.00;;;;8264591;28;20204;-72
2023/07/12 15:00:04;;;;;;;4.13;3.72;;;;;30.30;96068.00;;;;8279448;28;20260;-73
2023/07/12 15:04:15;;;;;;;6.80;4.07;;;;;30.00;96078.00;;;;8280213;28;20241;-74
2023/07/12 15:08:26;;;;;;;9.77;4.30;;;;;29.00;96089.00;;;;8277848;28;20245;-74
2023/07/12 15:12:36;;;;;;;10.38;5.43;;;;;27.30;96102.00;;;;8286036;28;20306;-66
2023/07/12 15:16:41;;;;;;;11.70;5.93;;;;;25.70;96129.00;;;;8259966;28;20202;-66
2023/07/12 15:20:47;;;;;;;14.45;6.65;;;;;24.50;96139.00;;;;8267773;28;20206;-65
2023/07/12 15:24:54;;;;;;;15.27;7.40;;;;;23.80;96154.00;;;;8271616;28;20234;-65
2023/07/12 15:28:57;;;;;;;18.73;7.78;;;;;23.40;96151.00;;;;8267925;28;20331;-64
2023/07/12 15:33:03;;;;;;;13.30;7.32;;;;;23.00;96101.00;;;;8265958;28;20289;-64
2023/07/12 15:37:13;;;;;;;13.18;8.13;;;;;22.80;96089.00;;;;8270751;28;20205;-65
2023/07/12 15:41:20;;;;;;;14.15;8.75;;;;;22.80;96082.00;;;;8277954;28;20322;-65
2023/07/12 15:45:23;;;;;;;13.05;8.20;;;;;22.80;96099.00;;;;8275221;28;20206;-66
2023/07/12 15:49:26;;;;;;;17.30;8.00;;;;;22.60;96116.00;;;;8283156;28;20241;-66
2023/07/12 15:53:30;;;;;;;15.02;7.22;;;;;22.70;96126.00;;;;8275959;28;20301;-68
2023/07/12 15:57:39;;;;;;;13.27;8.35;;;;;22.70;96151.00;;;;8255591;28;20727;-68
2023/07/12 16:01:49;;;;;;;17.17;8.95;;;;;22.90;96148.00;;;;8275439;28;20289;-68
2023/07/12 16:05:55;;;;;;;12.43;7.00;;;;;22.90;96158.00;;;;8265620;28;20236;-68
2023/07/12 16:10:01;;;;;;;11.60;7.43;;;;;22.90;96140.00;;;;8290012;28;20260;-68
2023/07/12 16:14:25;;;;;;;14.55;7.68;;;;;23.00;96101.00;;;;8284641;28;20210;-68
2023/07/12 16:18:31;;;;;;;12.73;7.45;;;;;23.10;96112.00;;;;8288365;28;20209;-74
2023/07/12 16:22:39;;;;;;;11.43;6.68;;;;;23.60;96110.00;;;;8297538;28;20928;-75
2023/07/12 16:26:46;;;;;;;13.27;6.95;;;;;23.80;96117.00;;;;8294040;28;20284;-76
2023/07/12 16:30:50;;;;;;;10.13;6.40;;;;;23.90;96103.00;;;;8300031;28;20276;-73
2023/07/12 16:34:59;;;;;;;9.43;6.57;;;;;24.00;96104.00;;;;8293541;28;20329;-72
2023/07/12 16:39:08;;;;;;;11.63;6.28;;;;;24.10;96113.00;;;;8288314;28;20238;-71
2023/07/12 16:43:15;;;;;;;11.82;7.38;;;;;24.10;96112.00;;;;8294467;28;20211;-72
2023/07/12 16:47:23;;;;;;;12.88;7.78;;;;;24.00;96112.00;;;;8279667;28;20215;-71
2023/07/12 16:51:50;;;;;;;14.93;7.50;;;;;24.10;96106.00;;;;8273538;28;20703;-71
2023/07/12 16:55:58;;;;;;;13.23;8.20;;;;;24.00;96101.00;;;;8270164;28;20293;-72
2023/07/12 17:00:09;;;;;;;9.82;6.90;;;;;23.90;96078.00;;;;8273904;28;20492;-72
2023/07/12 17:04:19;;;;;;;12.43;7.47;;;;;23.90;96074.00;;;;8279580;28;20273;-73
2023/07/12 17:08:30;;;;;;;14.63;8.35;;;;;23.80;96077.00;;;;8283729;28;20226;-75
2023/07/12 17:12:34;;;;;;;11.77;7.55;;;;;23.60;96078.00;;;;8273010;28;20609;-74
2023/07/12 17:16:39;;;;;;;12.38;8.57;;;;;23.50;96084.00;;;;8288361;28;20268;-74
2023/07/12 17:20:45;;;;;;;16.10;8.30;;;;;23.30;96081.00;;;;8288217;28;20214;-74
2023/07/12 17:24:50;;;;;;;13.68;8.07;;;;;23.30;96088.00;;;;8274285;28;20285;-73
2023/07/12 17:28:57;;;;;;;12.32;8.10;;;;;23.20;96094.00;;;;8281026;28;20234;-73
2023/07/12 17:33:00;;;;;;;13.45;8.13;;;;;23.10;96090.00;;;;8288132;28;20289;-71
2023/07/12 17:37:05;;;;;;;16.10;7.75;;;;;23.10;96083.00;;;;8290540;28;20709;-71
2023/07/12 17:41:17;;;;;;;11.40;7.53;;;;;23.10;96062.00;;;;8275523;28;20209;-70
2023/07/12 17:45:23;;;;;;;10.98;7.50;;;;;23.20;96074.00;;;;8278160;28;20665;-69
2023/07/12 17:49:26;;;;;;;12.43;7.43;;;;;23.10;96071.00;;;;8265785;28;20313;-69
2023/07/12 17:53:30;;;;;;;13.20;7.38;;;;;23.10;96049.00;;;;8272472;28;20198;-73
2023/07/12 17:57:44;;;;;;;11.52;6.90;;;;;23.10;96050.00;;;;8270934;28;20207;-71
2023/07/12 18:01:47;;;;;;;11.88;7.05;;;;;23.00;96074.00;;;;8282241;28;20662;-73
2023/07/12 18:05:51;;;;;;;14.07;7.25;;;;;22.90;96070.00;;;;8277634;28;20277;-71
2023/07/12 18:09:58;;;;;;;13.07;6.88;;;;;22.80;96069.00;;;;8282045;28;20229;-70
2023/07/12 18:14:05;;;;;;;8.90;6.80;;;;;22.70;96093.00;;;;8272851;28;20208;-74
2023/07/12 18:18:11;;;;;;;11.75;7.57;;;;;22.40;96104.00;;;;8276811;28;20257;-79
2023/07/12 18:22:16;;;;;;;15.70;8.00;;;;;22.30;96107.00;;;;8281127;28;20294;-71
2023/07/12 18:26:28;;;;;;;11.07;7.22;;;;;22.30;96104.00;;;;8285923;28;20206;-73
2023/07/12 18:30:34;;;;;;;16.27;8.75;;;;;22.20;96084.00;;;;8264067;28;20675;-73
2023/07/12 18:34:37;;;;;;;10.90;8.02;;;;;22.20;96091.00;;;;8280122;28;20206;-72
2023/07/12 18:38:42;;;;;;;15.57;9.20;;;;;22.20;96087.00;;;;8278356;28;20202;-72
2023/07/12 18:42:47;;;;;;;17.52;9.20;;;;;22.10;96078.00;;;;8262029;28;20295;-72
2023/07/12 18:46:52;;;;;;;17.52;8.75;;;;;22.00;96066.00;;;;8267415;28;20198;-75
2023/07/12 18:50:58;;;;;;;16.63;8.55;;;;;21.90;96067.00;;;;8288746;28;20222;-74
2023/07/12 18:55:05;;;;;;;19.15;9.07;;;;;21.90;96065.00;;;;8291330;28;20214;-73
2023/07/12 18:59:09;;;;;;;15.52;9.48;;;;;21.80;96063.00;;;;8280180;28;20293;-74
2023/07/12 19:03:26;;;;;;;14.05;9.00;;;;;21.80;96064.00;;;;8275102;28;20226;-75
2023/07/12 19:07:30;;;;;;;21.05;9.50;;;;;21.80;96071.00;;;;8278224;28;20273;-75
2023/07/12 19:11:42;;;;;;;16.60;9.13;;;;;21.80;96072.00;;;;8266390;28;20226;-77
2023/07/12 19:15:53;;;;;;;19.90;9.20;;;;;21.80;96083.00;;;;8275460;28;20878;-75
2023/07/12 19:20:01;;;;;;;15.60;9.07;;;;;21.80;96078.00;;;;8277608;28;20202;-75
2023/07/12 19:24:04;;;;;;;14.65;8.75;;;;;21.80;96098.00;;;;8280146;28;20651;-75
2023/07/12 19:28:08;;;;;;;15.80;8.15;;;;;21.80;96086.00;;;;8280160;28;20710;-73
2023/07/12 19:32:18;;;;;;;15.15;8.90;;;;;21.80;96094.00;;;;8269030;28;20900;-72
2023/07/12 19:36:22;;;;;;;12.18;8.65;;;;;21.80;96101.00;;;;8280883;28;20316;-71
2023/07/12 19:40:26;;;;;;;13.88;8.00;;;;;21.80;96100.00;;;;8264064;28;20719;-73
2023/07/12 19:44:29;;;;;;;16.92;8.40;;;;;21.80;96115.00;;;;8282806;28;20644;-72
2023/07/12 19:48:33;;;;;;;14.75;8.50;;;;;21.70;96116.00;;;;8278123;28;20919;-70
2023/07/12 19:52:39;;;;;;;18.35;9.15;;;;;21.70;96116.00;;;;8279097;28;20236;-69
2023/07/12 19:56:42;;;;;;;17.90;9.07;;;;;21.70;96123.00;;;;8278123;28;20759;-70
2023/07/12 20:00:48;;;;;;;13.23;9.13;;;;;21.70;96126.00;;;;8278336;28;20202;-71
2023/07/12 20:05:00;;;;;;;16.00;8.90;;;;;21.70;96145.00;;;;8281156;28;20237;-69
2023/07/12 20:09:04;;;;;;;27.65;10.13;;;;;21.70;96153.00;;;;8274205;28;20230;-70
2023/07/12 20:13:10;;;;;;;20.75;10.40;;;;;21.60;96167.00;;;;8280845;28;20208;-69
2023/07/12 20:17:13;;;;;;;25.13;11.15;;;;;21.50;96177.00;;;;8279134;28;20707;-69
2023/07/12 20:21:24;;;;;;;23.60;11.93;;;;;21.40;96175.00;;;;8272748;28;20333;-68
2023/07/12 20:25:27;;;;;;;28.52;12.20;;;;;21.40;96190.00;;;;8279858;28;20290;-68
2023/07/12 20:29:31;;;;;;;21.67;12.75;;;;;21.30;96183.00;;;;8276589;28;20223;-69